Castro Verd, Portugal
Current Conditions -  °F | °C
As of 9:00 PM on Friday 19 Dec 2014 (Local Time) from LPBJ Reporting Station
Overcast Overcast  
Wind Chill: 39°   Ceiling: 700
Heat Index: 43°   Visibility: 6mi
Dew Point: 43°   Wind: 7mph
Humidity: 100%   Direction: 20°NNE
Pressure: 30.5"   Gusts: NA
Location:  37.7°N, 8.08°W
Report Text: LPBJ 192100Z 02006KT 9999 OVC007 06/06 Q1033
Loading
Personal Weather Stations






























Interactive Weather Map New forecast layout! Learn more

10-Day Weather Forecast

Advertisements
Track Severe Weather on mobile